Portada
METAR-TAF:

METAR-TAF

Aeroports :

Sitifis, Algèria

latitud: 36-11N, longitud: 005-25E, altitud: 1038 m

Observació

L'informe es va fer fa 27 minuts, a les 10:00 UTC
Vent 4 kt del Oest/Nord-Oest, variant entre Sud-Oest i Nord
Temperatura 26°C
Humitat 17%
Pressió 1026 hPa
Visibilitat 10 km o més
sense núvols per sota de 1500 mi sense presència de cumulonimbus.

METAR: DAAS 261000Z 29004KT 220V350 CAVOK 26/M01 Q1026

Hora: 11:27 (10:27 UTC)

Pronòstic

L'informe es va fer fa 5 hores i 27 minuts, a les 05:00 UTC
Pronòstic vàlid del 26 a les 06 UTC al 27 a les 06 UTC
Vent 8 kt del Est/Nord-Est
Visibilitat 10 km o més
sense núvols per sota de 1500 mi sense presència de cumulonimbus.
Probabilitat 30% :
Temporalment
l' 26 a les 12 UTC al 26 a les 18 UTC
Vent 12 kt del Nord/Nord-Est

TAF: DAAS 260500Z 2606/2706 06008KT CAVOK PROB30 TEMPO 2612/2618 02012KT

Observacions i pronòstics meteorològics de més de 4000 aeroports (METAR i TAF).

Les estacions disponibles són els punts grocs i vermells al mapa.

Posi el ratolí al punt desitjat per veure el nom de l'estació.

Feu clic per veure les observacions i els pronòstics meteorològics.

Per canviar el mapa: feu clic els botons verds amb una creu de color negre per apropar; al botó verd amb un guió per allunyar la imatge; o en les fletxes verdes per a mapes adjacents.


METAR-TAF: